sensor_id;sensor_type;location;lat;lon;timestamp;temperature;humidity
14985;DHT22;7588;62.368;25.902;2022-09-12T00:02:25;5.10;99.90
14985;DHT22;7588;62.368;25.902;2022-09-12T00:04:51;5.00;99.90
14985;DHT22;7588;62.368;25.902;2022-09-12T00:07:16;5.00;99.90
14985;DHT22;7588;62.368;25.902;2022-09-12T00:09:42;5.00;99.90
14985;DHT22;7588;62.368;25.902;2022-09-12T00:12:08;5.00;99.90
14985;DHT22;7588;62.368;25.902;2022-09-12T00:14:34;5.00;99.90
14985;DHT22;7588;62.368;25.902;2022-09-12T00:17:00;5.10;99.90
14985;DHT22;7588;62.368;25.902;2022-09-12T00:19:27;5.10;99.90
14985;DHT22;7588;62.368;25.902;2022-09-12T00:21:53;5.10;99.90
14985;DHT22;7588;62.368;25.902;2022-09-12T00:24:19;5.10;99.90
14985;DHT22;7588;62.368;25.902;2022-09-12T00:26:45;5.20;99.90
14985;DHT22;7588;62.368;25.902;2022-09-12T00:29:19;5.20;99.90
14985;DHT22;7588;62.368;25.902;2022-09-12T00:31:45;5.30;99.90
14985;DHT22;7588;62.368;25.902;2022-09-12T00:34:11;5.30;99.90
14985;DHT22;7588;62.368;25.902;2022-09-12T00:36:38;5.40;99.90
14985;DHT22;7588;62.368;25.902;2022-09-12T00:39:05;5.40;99.90
14985;DHT22;7588;62.368;25.902;2022-09-12T00:41:32;5.50;99.90
14985;DHT22;7588;62.368;25.902;2022-09-12T00:44:00;5.50;99.90
14985;DHT22;7588;62.368;25.902;2022-09-12T00:46:37;5.60;99.90
14985;DHT22;7588;62.368;25.902;2022-09-12T00:51:49;5.70;99.90
14985;DHT22;7588;62.368;25.902;2022-09-12T00:54:19;5.80;99.90
14985;DHT22;7588;62.368;25.902;2022-09-12T00:56:48;5.90;99.90
14985;DHT22;7588;62.368;25.902;2022-09-12T00:59:23;5.90;99.90
14985;DHT22;7588;62.368;25.902;2022-09-12T01:01:50;5.90;99.90
14985;DHT22;7588;62.368;25.902;2022-09-12T01:04:20;5.90;99.90
14985;DHT22;7588;62.368;25.902;2022-09-12T01:06:47;6.00;99.90
14985;DHT22;7588;62.368;25.902;2022-09-12T01:09:17;6.00;99.90
14985;DHT22;7588;62.368;25.902;2022-09-12T01:11:44;6.00;99.90
14985;DHT22;7588;62.368;25.902;2022-09-12T01:14:13;6.10;99.90
14985;DHT22;7588;62.368;25.902;2022-09-12T01:16:39;6.10;99.90
14985;DHT22;7588;62.368;25.902;2022-09-12T01:22:22;6.20;99.90
14985;DHT22;7588;62.368;25.902;2022-09-12T01:33:46;6.30;99.90
14985;DHT22;7588;62.368;25.902;2022-09-12T01:36:32;6.30;99.90
14985;DHT22;7588;62.368;25.902;2022-09-12T01:39:27;6.30;99.90
14985;DHT22;7588;62.368;25.902;2022-09-12T01:47:20;6.40;99.90
14985;DHT22;7588;62.368;25.902;2022-09-12T01:53:20;6.40;99.90
14985;DHT22;7588;62.368;25.902;2022-09-12T01:58:12;6.40;99.90
14985;DHT22;7588;62.368;25.902;2022-09-12T02:00:54;6.50;99.90
14985;DHT22;7588;62.368;25.902;2022-09-12T02:03:28;6.60;99.90
14985;DHT22;7588;62.368;25.902;2022-09-12T02:06:04;6.60;99.90
14985;DHT22;7588;62.368;25.902;2022-09-12T02:08:39;6.60;99.90
14985;DHT22;7588;62.368;25.902;2022-09-12T02:11:10;6.60;99.90
14985;DHT22;7588;62.368;25.902;2022-09-12T02:16:50;6.70;99.90
14985;DHT22;7588;62.368;25.902;2022-09-12T02:19:21;6.70;99.90
14985;DHT22;7588;62.368;25.902;2022-09-12T02:21:54;6.70;99.90
14985;DHT22;7588;62.368;25.902;2022-09-12T02:24:21;6.70;99.90
14985;DHT22;7588;62.368;25.902;2022-09-12T02:26:59;6.70;99.90
14985;DHT22;7588;62.368;25.902;2022-09-12T02:29:26;6.70;99.90
14985;DHT22;7588;62.368;25.902;2022-09-12T02:32:02;6.70;99.90
14985;DHT22;7588;62.368;25.902;2022-09-12T02:39:38;6.80;99.90
14985;DHT22;7588;62.368;25.902;2022-09-12T02:42:05;6.80;99.90
14985;DHT22;7588;62.368;25.902;2022-09-12T02:44:32;6.80;99.90
14985;DHT22;7588;62.368;25.902;2022-09-12T02:47:13;6.80;99.90
14985;DHT22;7588;62.368;25.902;2022-09-12T02:49:40;6.80;99.90
14985;DHT22;7588;62.368;25.902;2022-09-12T02:52:06;6.80;99.90
14985;DHT22;7588;62.368;25.902;2022-09-12T02:54:32;6.90;99.90
14985;DHT22;7588;62.368;25.902;2022-09-12T02:56:58;6.90;99.90
14985;DHT22;7588;62.368;25.902;2022-09-12T02:59:24;6.90;99.90
14985;DHT22;7588;62.368;25.902;2022-09-12T03:15:52;6.80;99.90
14985;DHT22;7588;62.368;25.902;2022-09-12T03:18:48;6.80;99.90
14985;DHT22;7588;62.368;25.902;2022-09-12T03:21:41;6.80;99.90
14985;DHT22;7588;62.368;25.902;2022-09-12T03:24:16;6.80;99.90
14985;DHT22;7588;62.368;25.902;2022-09-12T03:26:47;6.80;99.90
14985;DHT22;7588;62.368;25.902;2022-09-12T03:29:15;6.80;99.90
14985;DHT22;7588;62.368;25.902;2022-09-12T03:31:54;6.80;99.90
14985;DHT22;7588;62.368;25.902;2022-09-12T03:34:21;6.80;99.90
14985;DHT22;7588;62.368;25.902;2022-09-12T03:36:48;6.80;99.90
14985;DHT22;7588;62.368;25.902;2022-09-12T03:39:14;6.90;99.90
14985;DHT22;7588;62.368;25.902;2022-09-12T03:41:40;6.90;99.90
14985;DHT22;7588;62.368;25.902;2022-09-12T03:44:06;6.90;99.90
14985;DHT22;7588;62.368;25.902;2022-09-12T03:46:32;6.90;99.90
14985;DHT22;7588;62.368;25.902;2022-09-12T03:48:58;6.90;99.90
14985;DHT22;7588;62.368;25.902;2022-09-12T03:51:24;6.90;99.90
14985;DHT22;7588;62.368;25.902;2022-09-12T03:53:49;6.90;99.90
14985;DHT22;7588;62.368;25.902;2022-09-12T03:56:16;6.90;99.90
14985;DHT22;7588;62.368;25.902;2022-09-12T03:58:42;7.00;99.90
14985;DHT22;7588;62.368;25.902;2022-09-12T04:01:10;7.00;99.90
14985;DHT22;7588;62.368;25.902;2022-09-12T04:03:41;6.90;99.90
14985;DHT22;7588;62.368;25.902;2022-09-12T04:06:09;7.00;99.90
14985;DHT22;7588;62.368;25.902;2022-09-12T04:08:35;6.90;99.90
14985;DHT22;7588;62.368;25.902;2022-09-12T04:11:07;7.00;99.90
14985;DHT22;7588;62.368;25.902;2022-09-12T04:13:34;7.00;99.90
14985;DHT22;7588;62.368;25.902;2022-09-12T04:16:00;7.00;99.90
14985;DHT22;7588;62.368;25.902;2022-09-12T04:18:26;7.00;99.90
14985;DHT22;7588;62.368;25.902;2022-09-12T04:20:52;7.00;99.90
14985;DHT22;7588;62.368;25.902;2022-09-12T04:23:18;7.10;99.90
14985;DHT22;7588;62.368;25.902;2022-09-12T04:25:55;7.10;99.90
14985;DHT22;7588;62.368;25.902;2022-09-12T04:28:21;7.20;99.90
14985;DHT22;7588;62.368;25.902;2022-09-12T04:30:47;7.20;99.90
14985;DHT22;7588;62.368;25.902;2022-09-12T04:33:13;7.30;99.90
14985;DHT22;7588;62.368;25.902;2022-09-12T04:35:39;7.40;99.90
14985;DHT22;7588;62.368;25.902;2022-09-12T04:38:06;7.40;99.90
14985;DHT22;7588;62.368;25.902;2022-09-12T04:40:32;7.40;99.90
14985;DHT22;7588;62.368;25.902;2022-09-12T04:42:58;7.40;99.90
14985;DHT22;7588;62.368;25.902;2022-09-12T04:45:24;7.40;99.90
14985;DHT22;7588;62.368;25.902;2022-09-12T04:47:50;7.50;99.90
14985;DHT22;7588;62.368;25.902;2022-09-12T04:50:16;7.50;99.90
14985;DHT22;7588;62.368;25.902;2022-09-12T04:52:42;7.50;99.90
14985;DHT22;7588;62.368;25.902;2022-09-12T04:55:08;7.50;99.90
14985;DHT22;7588;62.368;25.902;2022-09-12T04:57:35;7.50;99.90
14985;DHT22;7588;62.368;25.902;2022-09-12T05:00:02;7.40;99.90
14985;DHT22;7588;62.368;25.902;2022-09-12T05:02:32;7.40;99.90
14985;DHT22;7588;62.368;25.902;2022-09-12T05:04:58;7.40;99.90
14985;DHT22;7588;62.368;25.902;2022-09-12T05:07:24;7.40;99.90
14985;DHT22;7588;62.368;25.902;2022-09-12T05:09:50;7.50;99.90
14985;DHT22;7588;62.368;25.902;2022-09-12T05:12:16;7.60;99.90
14985;DHT22;7588;62.368;25.902;2022-09-12T05:14:42;7.70;99.90
14985;DHT22;7588;62.368;25.902;2022-09-12T05:17:07;7.80;99.90
14985;DHT22;7588;62.368;25.902;2022-09-12T05:19:33;7.90;99.90
14985;DHT22;7588;62.368;25.902;2022-09-12T05:21:59;8.00;99.90
14985;DHT22;7588;62.368;25.902;2022-09-12T05:24:25;8.10;99.90
14985;DHT22;7588;62.368;25.902;2022-09-12T05:26:51;8.10;99.90
14985;DHT22;7588;62.368;25.902;2022-09-12T05:29:17;8.20;99.90
14985;DHT22;7588;62.368;25.902;2022-09-12T05:31:43;8.20;99.90
14985;DHT22;7588;62.368;25.902;2022-09-12T05:34:09;8.20;99.90
14985;DHT22;7588;62.368;25.902;2022-09-12T05:36:36;8.30;99.90
14985;DHT22;7588;62.368;25.902;2022-09-12T05:39:02;8.30;99.90
14985;DHT22;7588;62.368;25.902;2022-09-12T05:41:31;8.30;99.90
14985;DHT22;7588;62.368;25.902;2022-09-12T05:43:59;8.30;99.90
14985;DHT22;7588;62.368;25.902;2022-09-12T05:46:28;8.40;99.90
14985;DHT22;7588;62.368;25.902;2022-09-12T05:48:55;8.50;99.90
14985;DHT22;7588;62.368;25.902;2022-09-12T05:51:25;8.50;99.90
14985;DHT22;7588;62.368;25.902;2022-09-12T05:53:53;8.50;99.90
14985;DHT22;7588;62.368;25.902;2022-09-12T05:56:22;8.60;99.90
14985;DHT22;7588;62.368;25.902;2022-09-12T05:58:58;8.70;99.90
14985;DHT22;7588;62.368;25.902;2022-09-12T06:01:26;8.70;99.90
14985;DHT22;7588;62.368;25.902;2022-09-12T06:03:54;8.80;99.90
14985;DHT22;7588;62.368;25.902;2022-09-12T06:06:22;8.80;99.90
14985;DHT22;7588;62.368;25.902;2022-09-12T06:08:54;8.90;99.90
14985;DHT22;7588;62.368;25.902;2022-09-12T06:11:23;8.90;99.90
14985;DHT22;7588;62.368;25.902;2022-09-12T06:13:51;9.00;99.90
14985;DHT22;7588;62.368;25.902;2022-09-12T06:16:21;9.10;99.90
14985;DHT22;7588;62.368;25.902;2022-09-12T06:18:48;9.20;99.90
14985;DHT22;7588;62.368;25.902;2022-09-12T06:21:15;9.20;99.90
14985;DHT22;7588;62.368;25.902;2022-09-12T06:23:41;9.30;99.90
14985;DHT22;7588;62.368;25.902;2022-09-12T06:26:09;9.30;99.90
14985;DHT22;7588;62.368;25.902;2022-09-12T06:28:37;9.40;99.90
14985;DHT22;7588;62.368;25.902;2022-09-12T06:31:04;9.40;99.90
14985;DHT22;7588;62.368;25.902;2022-09-12T06:33:32;9.40;99.90
14985;DHT22;7588;62.368;25.902;2022-09-12T06:36:06;9.50;99.90
14985;DHT22;7588;62.368;25.902;2022-09-12T06:38:33;9.50;99.90
14985;DHT22;7588;62.368;25.902;2022-09-12T06:40:59;9.50;99.90
14985;DHT22;7588;62.368;25.902;2022-09-12T06:43:27;9.60;99.90
14985;DHT22;7588;62.368;25.902;2022-09-12T06:45:53;9.60;99.90
14985;DHT22;7588;62.368;25.902;2022-09-12T06:48:18;9.70;99.90
14985;DHT22;7588;62.368;25.902;2022-09-12T06:50:55;9.80;99.90
14985;DHT22;7588;62.368;25.902;2022-09-12T06:53:22;9.80;99.90
14985;DHT22;7588;62.368;25.902;2022-09-12T06:55:57;10.00;99.90
14985;DHT22;7588;62.368;25.902;2022-09-12T06:58:24;10.00;99.90
14985;DHT22;7588;62.368;25.902;2022-09-12T07:00:50;10.10;99.90
14985;DHT22;7588;62.368;25.902;2022-09-12T07:03:16;10.20;99.90
14985;DHT22;7588;62.368;25.902;2022-09-12T07:05:43;10.20;99.90
14985;DHT22;7588;62.368;25.902;2022-09-12T07:08:09;10.40;99.90
14985;DHT22;7588;62.368;25.902;2022-09-12T07:10:35;10.40;99.90
14985;DHT22;7588;62.368;25.902;2022-09-12T07:13:00;10.50;99.90
14985;DHT22;7588;62.368;25.902;2022-09-12T07:15:26;10.60;99.90
14985;DHT22;7588;62.368;25.902;2022-09-12T07:17:52;10.70;99.90
14985;DHT22;7588;62.368;25.902;2022-09-12T07:20:18;10.70;99.90
14985;DHT22;7588;62.368;25.902;2022-09-12T07:22:44;10.80;99.90
14985;DHT22;7588;62.368;25.902;2022-09-12T07:25:11;10.90;99.90
14985;DHT22;7588;62.368;25.902;2022-09-12T07:27:36;10.90;99.90
14985;DHT22;7588;62.368;25.902;2022-09-12T07:30:04;11.10;99.90
14985;DHT22;7588;62.368;25.902;2022-09-12T07:32:32;11.20;99.90
14985;DHT22;7588;62.368;25.902;2022-09-12T07:34:58;11.20;99.90
14985;DHT22;7588;62.368;25.902;2022-09-12T07:37:24;11.40;99.90
14985;DHT22;7588;62.368;25.902;2022-09-12T07:39:50;11.50;99.90
14985;DHT22;7588;62.368;25.902;2022-09-12T07:42:15;11.60;99.90
14985;DHT22;7588;62.368;25.902;2022-09-12T07:44:41;11.60;99.90
14985;DHT22;7588;62.368;25.902;2022-09-12T07:47:08;11.70;99.90
14985;DHT22;7588;62.368;25.902;2022-09-12T07:49:34;11.70;99.90
14985;DHT22;7588;62.368;25.902;2022-09-12T07:52:00;11.70;99.90
14985;DHT22;7588;62.368;25.902;2022-09-12T07:54:26;11.70;99.90
14985;DHT22;7588;62.368;25.902;2022-09-12T07:56:52;11.70;99.90
14985;DHT22;7588;62.368;25.902;2022-09-12T07:59:18;11.80;99.90
14985;DHT22;7588;62.368;25.902;2022-09-12T08:01:44;11.80;99.90
14985;DHT22;7588;62.368;25.902;2022-09-12T08:04:10;11.70;99.90
14985;DHT22;7588;62.368;25.902;2022-09-12T08:06:36;11.70;99.90
14985;DHT22;7588;62.368;25.902;2022-09-12T08:09:03;11.80;99.90
14985;DHT22;7588;62.368;25.902;2022-09-12T08:11:29;11.90;99.90
14985;DHT22;7588;62.368;25.902;2022-09-12T08:13:56;11.90;99.90
14985;DHT22;7588;62.368;25.902;2022-09-12T08:16:24;12.00;99.90
14985;DHT22;7588;62.368;25.902;2022-09-12T08:18:50;12.00;99.90
14985;DHT22;7588;62.368;25.902;2022-09-12T08:21:19;12.00;99.90
14985;DHT22;7588;62.368;25.902;2022-09-12T08:23:45;12.10;99.90
14985;DHT22;7588;62.368;25.902;2022-09-12T08:26:12;12.30;99.90
14985;DHT22;7588;62.368;25.902;2022-09-12T08:28:38;12.50;99.90
14985;DHT22;7588;62.368;25.902;2022-09-12T08:31:12;12.60;99.90
14985;DHT22;7588;62.368;25.902;2022-09-12T08:33:38;12.70;99.90
14985;DHT22;7588;62.368;25.902;2022-09-12T08:36:10;12.80;99.90
14985;DHT22;7588;62.368;25.902;2022-09-12T08:38:38;12.90;99.90
14985;DHT22;7588;62.368;25.902;2022-09-12T08:41:34;13.00;99.90
14985;DHT22;7588;62.368;25.902;2022-09-12T08:47:13;13.20;99.90
14985;DHT22;7588;62.368;25.902;2022-09-12T08:50:13;13.40;99.90
14985;DHT22;7588;62.368;25.902;2022-09-12T08:52:56;13.70;99.90
14985;DHT22;7588;62.368;25.902;2022-09-12T08:55:33;14.00;99.90
14985;DHT22;7588;62.368;25.902;2022-09-12T08:58:01;14.10;99.90
14985;DHT22;7588;62.368;25.902;2022-09-12T09:03:23;14.40;99.90
14985;DHT22;7588;62.368;25.902;2022-09-12T09:06:15;14.50;99.90
14985;DHT22;7588;62.368;25.902;2022-09-12T09:09:03;14.70;99.90
14985;DHT22;7588;62.368;25.902;2022-09-12T09:11:55;14.80;99.90
14985;DHT22;7588;62.368;25.902;2022-09-12T09:17:34;15.60;99.90
14985;DHT22;7588;62.368;25.902;2022-09-12T09:22:49;16.50;99.90
14985;DHT22;7588;62.368;25.902;2022-09-12T09:25:22;16.70;99.90
14985;DHT22;7588;62.368;25.902;2022-09-12T09:27:57;16.90;99.90
14985;DHT22;7588;62.368;25.902;2022-09-12T09:30:25;16.90;99.90
14985;DHT22;7588;62.368;25.902;2022-09-12T09:32:59;17.20;99.90
14985;DHT22;7588;62.368;25.902;2022-09-12T09:43:22;19.10;98.90
14985;DHT22;7588;62.368;25.902;2022-09-12T09:45:50;19.40;98.00
14985;DHT22;7588;62.368;25.902;2022-09-12T09:48:28;19.50;95.90
14985;DHT22;7588;62.368;25.902;2022-09-12T09:50:58;19.90;94.40
14985;DHT22;7588;62.368;25.902;2022-09-12T09:53:33;20.00;94.20
14985;DHT22;7588;62.368;25.902;2022-09-12T09:56:08;20.10;95.00
14985;DHT22;7588;62.368;25.902;2022-09-12T09:58:35;20.30;93.10
14985;DHT22;7588;62.368;25.902;2022-09-12T10:01:11;20.40;92.80
14985;DHT22;7588;62.368;25.902;2022-09-12T10:03:38;20.30;91.70
14985;DHT22;7588;62.368;25.902;2022-09-12T10:06:31;20.20;92.80
14985;DHT22;7588;62.368;25.902;2022-09-12T10:11:39;19.90;92.00
14985;DHT22;7588;62.368;25.902;2022-09-12T10:14:26;20.00;92.20
14985;DHT22;7588;62.368;25.902;2022-09-12T10:16:52;19.90;92.20
14985;DHT22;7588;62.368;25.902;2022-09-12T10:19:24;20.10;91.70
14985;DHT22;7588;62.368;25.902;2022-09-12T10:21:57;20.30;92.10
14985;DHT22;7588;62.368;25.902;2022-09-12T10:24:41;20.60;93.20
14985;DHT22;7588;62.368;25.902;2022-09-12T10:30:06;21.30;88.90
14985;DHT22;7588;62.368;25.902;2022-09-12T10:32:42;21.60;91.30
14985;DHT22;7588;62.368;25.902;2022-09-12T10:35:30;22.10;88.90
14985;DHT22;7588;62.368;25.902;2022-09-12T10:38:09;22.20;88.20
14985;DHT22;7588;62.368;25.902;2022-09-12T10:40:41;22.50;87.80
14985;DHT22;7588;62.368;25.902;2022-09-12T10:43:28;22.30;87.80
14985;DHT22;7588;62.368;25.902;2022-09-12T10:45:56;22.60;85.80
14985;DHT22;7588;62.368;25.902;2022-09-12T10:48:29;22.30;85.70
14985;DHT22;7588;62.368;25.902;2022-09-12T10:51:01;22.00;84.70
14985;DHT22;7588;62.368;25.902;2022-09-12T10:53:47;21.80;86.40
14985;DHT22;7588;62.368;25.902;2022-09-12T10:56:18;21.80;83.40
14985;DHT22;7588;62.368;25.902;2022-09-12T11:01:41;21.90;82.00
14985;DHT22;7588;62.368;25.902;2022-09-12T11:04:42;21.50;86.30
14985;DHT22;7588;62.368;25.902;2022-09-12T11:07:25;21.20;85.40
14985;DHT22;7588;62.368;25.902;2022-09-12T11:10:00;21.00;86.50
14985;DHT22;7588;62.368;25.902;2022-09-12T11:20:33;21.10;88.50
14985;DHT22;7588;62.368;25.902;2022-09-12T11:33:51;20.60;88.20
14985;DHT22;7588;62.368;25.902;2022-09-12T11:41:36;20.00;88.50
14985;DHT22;7588;62.368;25.902;2022-09-12T11:44:17;20.10;88.10
14985;DHT22;7588;62.368;25.902;2022-09-12T11:46:44;20.20;89.90
14985;DHT22;7588;62.368;25.902;2022-09-12T11:52:06;20.00;89.90
14985;DHT22;7588;62.368;25.902;2022-09-12T12:00:31;19.70;91.00
14985;DHT22;7588;62.368;25.902;2022-09-12T12:08:19;20.10;90.00
14985;DHT22;7588;62.368;25.902;2022-09-12T12:11:00;20.20;86.10
14985;DHT22;7588;62.368;25.902;2022-09-12T12:18:31;20.90;87.40
14985;DHT22;7588;62.368;25.902;2022-09-12T12:27:01;20.70;84.70
14985;DHT22;7588;62.368;25.902;2022-09-12T12:34:35;20.30;87.60
14985;DHT22;7588;62.368;25.902;2022-09-12T12:52:48;21.10;88.90
14985;DHT22;7588;62.368;25.902;2022-09-12T12:55:44;20.80;91.10
14985;DHT22;7588;62.368;25.902;2022-09-12T13:01:31;20.80;86.30
14985;DHT22;7588;62.368;25.902;2022-09-12T13:04:16;20.90;86.90
14985;DHT22;7588;62.368;25.902;2022-09-12T13:06:46;20.50;89.30
14985;DHT22;7588;62.368;25.902;2022-09-12T13:11:43;20.00;91.60
14985;DHT22;7588;62.368;25.902;2022-09-12T13:16:57;19.50;87.40
14985;DHT22;7588;62.368;25.902;2022-09-12T13:19:29;19.20;90.40
14985;DHT22;7588;62.368;25.902;2022-09-12T13:22:07;19.00;91.50
14985;DHT22;7588;62.368;25.902;2022-09-12T13:24:42;18.60;93.20
14985;DHT22;7588;62.368;25.902;2022-09-12T13:27:21;18.40;94.30
14985;DHT22;7588;62.368;25.902;2022-09-12T13:29:48;18.30;94.50
14985;DHT22;7588;62.368;25.902;2022-09-12T13:32:15;18.20;92.30
14985;DHT22;7588;62.368;25.902;2022-09-12T13:35:06;18.00;93.20
14985;DHT22;7588;62.368;25.902;2022-09-12T13:38:17;17.90;91.40
14985;DHT22;7588;62.368;25.902;2022-09-12T13:40:38;17.70;91.20
14985;DHT22;7588;62.368;25.902;2022-09-12T13:43:17;17.60;92.30
14985;DHT22;7588;62.368;25.902;2022-09-12T13:45:47;17.60;91.50
14985;DHT22;7588;62.368;25.902;2022-09-12T13:48:19;17.50;91.90
14985;DHT22;7588;62.368;25.902;2022-09-12T13:50:55;17.50;91.20
14985;DHT22;7588;62.368;25.902;2022-09-12T13:53:25;17.50;92.80
14985;DHT22;7588;62.368;25.902;2022-09-12T13:55:57;17.60;91.40
14985;DHT22;7588;62.368;25.902;2022-09-12T13:58:25;17.60;92.30
14985;DHT22;7588;62.368;25.902;2022-09-12T14:01:12;17.60;91.70
14985;DHT22;7588;62.368;25.902;2022-09-12T14:06:24;17.40;94.10
14985;DHT22;7588;62.368;25.902;2022-09-12T14:08:53;17.20;94.70
14985;DHT22;7588;62.368;25.902;2022-09-12T14:11:29;17.20;94.70
14985;DHT22;7588;62.368;25.902;2022-09-12T14:13:55;17.20;95.20
14985;DHT22;7588;62.368;25.902;2022-09-12T14:16:23;17.10;94.30
14985;DHT22;7588;62.368;25.902;2022-09-12T14:18:53;17.10;95.50
14985;DHT22;7588;62.368;25.902;2022-09-12T14:23:51;16.90;94.40
14985;DHT22;7588;62.368;25.902;2022-09-12T14:26:19;16.90;92.30
14985;DHT22;7588;62.368;25.902;2022-09-12T14:28:47;16.90;92.20
14985;DHT22;7588;62.368;25.902;2022-09-12T14:38:56;16.30;97.80
14985;DHT22;7588;62.368;25.902;2022-09-12T14:41:30;16.20;97.20
14985;DHT22;7588;62.368;25.902;2022-09-12T14:44:02;16.00;98.20
14985;DHT22;7588;62.368;25.902;2022-09-12T14:46:39;15.90;98.10
14985;DHT22;7588;62.368;25.902;2022-09-12T14:49:32;15.70;99.40
14985;DHT22;7588;62.368;25.902;2022-09-12T14:52:04;15.60;99.90
14985;DHT22;7588;62.368;25.902;2022-09-12T14:56:58;15.50;99.90
14985;DHT22;7588;62.368;25.902;2022-09-12T15:04:53;15.30;99.90
14985;DHT22;7588;62.368;25.902;2022-09-12T15:09:51;15.00;99.90
14985;DHT22;7588;62.368;25.902;2022-09-12T15:12:17;14.90;99.90
14985;DHT22;7588;62.368;25.902;2022-09-12T15:14:43;14.80;99.90
14985;DHT22;7588;62.368;25.902;2022-09-12T15:17:08;14.80;99.90
14985;DHT22;7588;62.368;25.902;2022-09-12T15:19:34;14.70;99.90
14985;DHT22;7588;62.368;25.902;2022-09-12T15:22:00;14.70;99.90
14985;DHT22;7588;62.368;25.902;2022-09-12T15:24:26;14.60;99.90
14985;DHT22;7588;62.368;25.902;2022-09-12T15:26:51;14.50;99.90
14985;DHT22;7588;62.368;25.902;2022-09-12T15:29:18;14.40;99.90
14985;DHT22;7588;62.368;25.902;2022-09-12T15:31:45;14.40;99.90
14985;DHT22;7588;62.368;25.902;2022-09-12T15:34:11;14.30;99.90
14985;DHT22;7588;62.368;25.902;2022-09-12T15:36:37;14.20;99.90
14985;DHT22;7588;62.368;25.902;2022-09-12T15:39:03;14.20;99.90
14985;DHT22;7588;62.368;25.902;2022-09-12T15:41:34;14.00;99.90
14985;DHT22;7588;62.368;25.902;2022-09-12T15:44:05;13.90;99.90
14985;DHT22;7588;62.368;25.902;2022-09-12T15:46:32;13.80;99.90
14985;DHT22;7588;62.368;25.902;2022-09-12T15:48:58;13.70;99.90
14985;DHT22;7588;62.368;25.902;2022-09-12T15:51:24;13.50;99.90
14985;DHT22;7588;62.368;25.902;2022-09-12T15:53:50;13.40;99.90
14985;DHT22;7588;62.368;25.902;2022-09-12T15:56:17;13.30;99.90
14985;DHT22;7588;62.368;25.902;2022-09-12T15:58:43;13.20;99.90
14985;DHT22;7588;62.368;25.902;2022-09-12T16:01:14;13.00;99.90
14985;DHT22;7588;62.368;25.902;2022-09-12T16:03:41;12.90;99.90
14985;DHT22;7588;62.368;25.902;2022-09-12T16:06:07;12.80;99.90
14985;DHT22;7588;62.368;25.902;2022-09-12T16:08:34;12.70;99.90
14985;DHT22;7588;62.368;25.902;2022-09-12T16:11:18;12.60;99.90
14985;DHT22;7588;62.368;25.902;2022-09-12T16:13:45;12.40;99.90
14985;DHT22;7588;62.368;25.902;2022-09-12T16:16:11;12.30;99.90
14985;DHT22;7588;62.368;25.902;2022-09-12T16:18:39;12.20;99.90
14985;DHT22;7588;62.368;25.902;2022-09-12T16:21:04;12.10;99.90
14985;DHT22;7588;62.368;25.902;2022-09-12T16:23:30;12.00;99.90
14985;DHT22;7588;62.368;25.902;2022-09-12T16:26:01;11.80;99.90
14985;DHT22;7588;62.368;25.902;2022-09-12T16:28:28;11.70;99.90
14985;DHT22;7588;62.368;25.902;2022-09-12T16:31:04;11.60;99.90
14985;DHT22;7588;62.368;25.902;2022-09-12T16:33:31;11.50;99.90
14985;DHT22;7588;62.368;25.902;2022-09-12T16:36:01;11.40;99.90
14985;DHT22;7588;62.368;25.902;2022-09-12T16:38:27;11.40;99.90
14985;DHT22;7588;62.368;25.902;2022-09-12T16:41:04;11.30;99.90
14985;DHT22;7588;62.368;25.902;2022-09-12T16:43:31;11.20;99.90
14985;DHT22;7588;62.368;25.902;2022-09-12T16:46:08;11.10;99.90
14985;DHT22;7588;62.368;25.902;2022-09-12T16:48:35;11.10;99.90
14985;DHT22;7588;62.368;25.902;2022-09-12T16:51:04;10.90;99.90
14985;DHT22;7588;62.368;25.902;2022-09-12T16:53:32;10.90;99.90
14985;DHT22;7588;62.368;25.902;2022-09-12T16:55:59;10.80;99.90
14985;DHT22;7588;62.368;25.902;2022-09-12T16:58:24;10.70;99.90
14985;DHT22;7588;62.368;25.902;2022-09-12T17:01:14;10.60;99.90
14985;DHT22;7588;62.368;25.902;2022-09-12T17:03:40;10.50;99.90
14985;DHT22;7588;62.368;25.902;2022-09-12T17:06:11;10.40;99.90
14985;DHT22;7588;62.368;25.902;2022-09-12T17:08:40;10.40;99.90
14985;DHT22;7588;62.368;25.902;2022-09-12T17:11:16;10.30;99.90
14985;DHT22;7588;62.368;25.902;2022-09-12T17:13:46;10.20;99.90
14985;DHT22;7588;62.368;25.902;2022-09-12T17:16:12;10.20;99.90
14985;DHT22;7588;62.368;25.902;2022-09-12T17:18:38;10.10;99.90
14985;DHT22;7588;62.368;25.902;2022-09-12T17:21:08;10.00;99.90
14985;DHT22;7588;62.368;25.902;2022-09-12T17:23:34;9.90;99.90
14985;DHT22;7588;62.368;25.902;2022-09-12T17:26:01;9.90;99.90
14985;DHT22;7588;62.368;25.902;2022-09-12T17:28:27;9.80;99.90
14985;DHT22;7588;62.368;25.902;2022-09-12T17:30:58;9.80;99.90
14985;DHT22;7588;62.368;25.902;2022-09-12T17:33:24;9.70;99.90
14985;DHT22;7588;62.368;25.902;2022-09-12T17:35:51;9.70;99.90
14985;DHT22;7588;62.368;25.902;2022-09-12T17:38:17;9.60;99.90
14985;DHT22;7588;62.368;25.902;2022-09-12T17:40:43;9.60;99.90
14985;DHT22;7588;62.368;25.902;2022-09-12T17:43:11;9.50;99.90
14985;DHT22;7588;62.368;25.902;2022-09-12T17:45:37;9.50;99.90
14985;DHT22;7588;62.368;25.902;2022-09-12T17:48:03;9.40;99.90
14985;DHT22;7588;62.368;25.902;2022-09-12T17:50:34;9.40;99.90
14985;DHT22;7588;62.368;25.902;2022-09-12T17:53:00;9.40;99.90
14985;DHT22;7588;62.368;25.902;2022-09-12T17:55:26;9.30;99.90
14985;DHT22;7588;62.368;25.902;2022-09-12T17:57:57;9.30;99.90
14985;DHT22;7588;62.368;25.902;2022-09-12T18:00:25;9.30;99.90
14985;DHT22;7588;62.368;25.902;2022-09-12T18:03:10;9.20;99.90
14985;DHT22;7588;62.368;25.902;2022-09-12T18:05:46;9.20;99.90
14985;DHT22;7588;62.368;25.902;2022-09-12T18:08:13;9.20;99.90
14985;DHT22;7588;62.368;25.902;2022-09-12T18:10:39;9.10;99.90
14985;DHT22;7588;62.368;25.902;2022-09-12T18:13:05;9.00;99.90
14985;DHT22;7588;62.368;25.902;2022-09-12T18:15:35;9.00;99.90
14985;DHT22;7588;62.368;25.902;2022-09-12T18:18:01;8.90;99.90
14985;DHT22;7588;62.368;25.902;2022-09-12T18:20:27;8.80;99.90
14985;DHT22;7588;62.368;25.902;2022-09-12T18:22:53;8.80;99.90
14985;DHT22;7588;62.368;25.902;2022-09-12T18:25:19;8.70;99.90
14985;DHT22;7588;62.368;25.902;2022-09-12T18:27:45;8.70;99.90
14985;DHT22;7588;62.368;25.902;2022-09-12T18:30:11;8.60;99.90
14985;DHT22;7588;62.368;25.902;2022-09-12T18:32:38;8.60;99.90
14985;DHT22;7588;62.368;25.902;2022-09-12T18:35:05;8.50;99.90
14985;DHT22;7588;62.368;25.902;2022-09-12T18:37:31;8.50;99.90
14985;DHT22;7588;62.368;25.902;2022-09-12T18:39:57;8.40;99.90
14985;DHT22;7588;62.368;25.902;2022-09-12T18:42:26;8.40;99.90
14985;DHT22;7588;62.368;25.902;2022-09-12T18:44:52;8.30;99.90
14985;DHT22;7588;62.368;25.902;2022-09-12T18:47:17;8.30;99.90
14985;DHT22;7588;62.368;25.902;2022-09-12T18:49:43;8.20;99.90
14985;DHT22;7588;62.368;25.902;2022-09-12T18:52:09;8.20;99.90
14985;DHT22;7588;62.368;25.902;2022-09-12T18:54:34;8.10;99.90